Terminal Aerodrome Forecast
Issued by NWS Cleveland, OH

Home | Current Version | Previous Version | Text Only | Print | Product List | Glossary Off
Versions: 1 2 3 4 5 6 7 8 9 10 11 12 13 14 15 16

000
FTUS41 KCLE 312331
TAFYNG
TAF
KYNG 312331Z 0100/0124 36005KT P6SM FEW040
     FM010300 VRB03KT P6SM SKC
     FM010900 VRB03KT 4SM BR SKC
     FM011300 24005KT P6SM SCT040
     FM012000 28005KT P6SM SCT045=

USA.gov is the U.S. government's official web portal to all federal, state and local government web resources and services.